Terminal Aerodrome Forecast
Issued by NWS Jacksonville, FL

Home | Current Version | Previous Version | Text Only | Print | Product List | Glossary On
Versions: 1 2 3 4 5 6 7 8 9 10 11 12 13 14 15 16 17 18 19 20 21 22
545
FTUS42 KJAX 030540
TAFSSI
TAF
KSSI 030540Z 0306/0406 18010KT P6SM FEW008 SCT060 BKN200
     FM030900 21008KT P6SM FEW008 SCT015 BKN200
      TEMPO 0311/0314 BKN015
     FM031400 25010KT P6SM SCT025 BKN080
     FM031800 22010KT P6SM VCTS BKN040CB
     FM040000 23005KT P6SM -RA VCTS SCT040CB OVC100=

USA.gov is the U.S. government's official web portal to all federal, state and local government web resources and services.